sensor_id;sensor_type;location;lat;lon;timestamp;pressure;altitude;pressure_sealevel;temperature;humidity
54900;BME280;40801;41.924;25.562;2023-07-28T00:01:38;99413.25;;;19.85;43.59
54900;BME280;40801;41.924;25.562;2023-07-28T00:04:03;99414.81;;;19.86;43.50
54900;BME280;40801;41.924;25.562;2023-07-28T00:06:32;99418.78;;;19.89;43.30
54900;BME280;40801;41.924;25.562;2023-07-28T00:08:58;99413.25;;;19.85;43.43
54900;BME280;40801;41.924;25.562;2023-07-28T00:11:23;99425.03;;;19.89;43.12
54900;BME280;40801;41.924;25.562;2023-07-28T00:13:48;99435.25;;;19.92;43.08
54900;BME280;40801;41.924;25.562;2023-07-28T00:16:14;99437.19;;;19.92;43.11
54900;BME280;40801;41.924;25.562;2023-07-28T00:18:39;99444.19;;;19.89;42.99
54900;BME280;40801;41.924;25.562;2023-07-28T00:21:05;99444.56;;;19.88;43.13
54900;BME280;40801;41.924;25.562;2023-07-28T00:23:30;99447.25;;;19.84;43.17
54900;BME280;40801;41.924;25.562;2023-07-28T00:25:56;99443.72;;;19.84;43.53
54900;BME280;40801;41.924;25.562;2023-07-28T00:28:21;99452.28;;;19.82;43.38
54900;BME280;40801;41.924;25.562;2023-07-28T00:30:50;99444.38;;;19.77;43.64
54900;BME280;40801;41.924;25.562;2023-07-28T00:33:16;99449.91;;;19.80;43.42
54900;BME280;40801;41.924;25.562;2023-07-28T00:35:41;99459.81;;;19.66;44.02
54900;BME280;40801;41.924;25.562;2023-07-28T00:38:08;99452.41;;;19.66;43.96
54900;BME280;40801;41.924;25.562;2023-07-28T00:40:35;99462.53;;;19.66;43.85
54900;BME280;40801;41.924;25.562;2023-07-28T00:43:00;99461.84;;;19.69;43.78
54900;BME280;40801;41.924;25.562;2023-07-28T00:45:26;99466.88;;;19.67;43.58
54900;BME280;40801;41.924;25.562;2023-07-28T00:47:51;99469.25;;;19.68;43.64
54900;BME280;40801;41.924;25.562;2023-07-28T00:50:17;99470.31;;;19.64;44.07
54900;BME280;40801;41.924;25.562;2023-07-28T00:52:43;99474.16;;;19.59;44.31
54900;BME280;40801;41.924;25.562;2023-07-28T00:55:09;99480.25;;;19.53;44.80
54900;BME280;40801;41.924;25.562;2023-07-28T00:57:34;99473.38;;;19.39;45.44
54900;BME280;40801;41.924;25.562;2023-07-28T01:00:00;99472.78;;;19.30;46.01
54900;BME280;40801;41.924;25.562;2023-07-28T01:02:26;99472.59;;;19.19;46.21
54900;BME280;40801;41.924;25.562;2023-07-28T01:04:51;99469.72;;;19.12;46.48
54900;BME280;40801;41.924;25.562;2023-07-28T01:07:27;99474.56;;;19.03;47.45
54900;BME280;40801;41.924;25.562;2023-07-28T01:10:28;99473.66;;;18.96;47.97
54900;BME280;40801;41.924;25.562;2023-07-28T01:12:55;99473.94;;;18.91;46.94
54900;BME280;40801;41.924;25.562;2023-07-28T01:15:20;99476.59;;;18.87;47.00
54900;BME280;40801;41.924;25.562;2023-07-28T01:17:46;99479.19;;;18.80;47.40
54900;BME280;40801;41.924;25.562;2023-07-28T01:20:11;99481.00;;;18.76;47.29
54900;BME280;40801;41.924;25.562;2023-07-28T01:22:48;99477.84;;;18.74;47.57
54900;BME280;40801;41.924;25.562;2023-07-28T01:27:58;99485.09;;;18.66;48.00
54900;BME280;40801;41.924;25.562;2023-07-28T01:30:26;99483.06;;;18.63;48.19
54900;BME280;40801;41.924;25.562;2023-07-28T01:32:56;99479.44;;;18.59;48.83
54900;BME280;40801;41.924;25.562;2023-07-28T01:35:22;99486.34;;;18.53;48.43
54900;BME280;40801;41.924;25.562;2023-07-28T01:37:47;99486.41;;;18.56;48.11
54900;BME280;40801;41.924;25.562;2023-07-28T01:40:17;99491.88;;;18.56;48.19
54900;BME280;40801;41.924;25.562;2023-07-28T01:42:42;99496.91;;;18.54;48.35
54900;BME280;40801;41.924;25.562;2023-07-28T01:45:08;99501.56;;;18.54;48.43
54900;BME280;40801;41.924;25.562;2023-07-28T01:47:33;99508.19;;;18.53;48.52
54900;BME280;40801;41.924;25.562;2023-07-28T01:49:59;99491.00;;;18.52;48.59
54900;BME280;40801;41.924;25.562;2023-07-28T01:52:24;99487.03;;;18.50;48.46
54900;BME280;40801;41.924;25.562;2023-07-28T01:54:50;99487.84;;;18.50;48.75
54900;BME280;40801;41.924;25.562;2023-07-28T01:57:15;99497.50;;;18.48;48.89
54900;BME280;40801;41.924;25.562;2023-07-28T01:59:41;99498.66;;;18.47;48.99
54900;BME280;40801;41.924;25.562;2023-07-28T02:02:06;99497.34;;;18.41;49.12
54900;BME280;40801;41.924;25.562;2023-07-28T02:04:31;99502.72;;;18.37;49.40
54900;BME280;40801;41.924;25.562;2023-07-28T02:06:57;99501.50;;;18.35;49.47
54900;BME280;40801;41.924;25.562;2023-07-28T02:09:22;99508.03;;;18.30;49.70
54900;BME280;40801;41.924;25.562;2023-07-28T02:11:48;99513.31;;;18.23;50.03
54900;BME280;40801;41.924;25.562;2023-07-28T02:14:13;99512.31;;;18.15;49.94
54900;BME280;40801;41.924;25.562;2023-07-28T02:16:38;99510.13;;;18.05;50.18
54900;BME280;40801;41.924;25.562;2023-07-28T02:19:04;99512.94;;;17.93;50.73
54900;BME280;40801;41.924;25.562;2023-07-28T02:21:30;99516.16;;;17.83;50.59
54900;BME280;40801;41.924;25.562;2023-07-28T02:23:55;99522.03;;;17.69;50.91
54900;BME280;40801;41.924;25.562;2023-07-28T02:26:20;99520.56;;;17.59;51.07
54900;BME280;40801;41.924;25.562;2023-07-28T02:28:46;99524.88;;;17.60;51.08
54900;BME280;40801;41.924;25.562;2023-07-28T02:31:11;99514.03;;;17.48;51.40
54900;BME280;40801;41.924;25.562;2023-07-28T02:33:37;99518.94;;;17.43;51.83
54900;BME280;40801;41.924;25.562;2023-07-28T02:36:04;99524.75;;;17.41;52.02
54900;BME280;40801;41.924;25.562;2023-07-28T02:38:29;99518.41;;;17.37;52.13
54900;BME280;40801;41.924;25.562;2023-07-28T02:40:55;99527.25;;;17.34;52.23
54900;BME280;40801;41.924;25.562;2023-07-28T02:43:20;99523.88;;;17.25;52.43
54900;BME280;40801;41.924;25.562;2023-07-28T02:45:53;99515.94;;;17.20;53.23
54900;BME280;40801;41.924;25.562;2023-07-28T02:48:18;99529.69;;;17.23;52.46
54900;BME280;40801;41.924;25.562;2023-07-28T02:50:46;99529.22;;;17.21;52.45
54900;BME280;40801;41.924;25.562;2023-07-28T02:53:13;99541.28;;;17.20;53.02
54900;BME280;40801;41.924;25.562;2023-07-28T02:55:42;99537.31;;;17.18;53.05
54900;BME280;40801;41.924;25.562;2023-07-28T02:58:08;99537.00;;;17.07;54.50
54900;BME280;40801;41.924;25.562;2023-07-28T03:00:33;99533.13;;;17.08;52.85
54900;BME280;40801;41.924;25.562;2023-07-28T03:02:59;99538.94;;;17.07;52.84
54900;BME280;40801;41.924;25.562;2023-07-28T03:05:24;99530.63;;;17.03;53.05
54900;BME280;40801;41.924;25.562;2023-07-28T03:07:49;99534.13;;;17.03;53.19
54900;BME280;40801;41.924;25.562;2023-07-28T03:10:15;99530.75;;;17.07;53.06
54900;BME280;40801;41.924;25.562;2023-07-28T03:12:42;99537.91;;;17.11;52.97
54900;BME280;40801;41.924;25.562;2023-07-28T03:15:08;99530.16;;;17.13;53.13
54900;BME280;40801;41.924;25.562;2023-07-28T03:17:33;99517.22;;;17.10;52.86
54900;BME280;40801;41.924;25.562;2023-07-28T03:19:58;99518.56;;;17.16;52.86
54900;BME280;40801;41.924;25.562;2023-07-28T03:22:24;99517.53;;;17.21;52.75
54900;BME280;40801;41.924;25.562;2023-07-28T03:24:49;99521.50;;;17.23;52.78
54900;BME280;40801;41.924;25.562;2023-07-28T03:27:15;99521.16;;;17.25;52.90
54900;BME280;40801;41.924;25.562;2023-07-28T03:29:40;99531.25;;;17.24;53.09
54900;BME280;40801;41.924;25.562;2023-07-28T03:32:06;99528.97;;;17.26;52.93
54900;BME280;40801;41.924;25.562;2023-07-28T03:34:31;99529.78;;;17.27;52.96
54900;BME280;40801;41.924;25.562;2023-07-28T03:36:56;99536.81;;;17.28;52.95
54900;BME280;40801;41.924;25.562;2023-07-28T03:39:22;99538.28;;;17.25;52.96
54900;BME280;40801;41.924;25.562;2023-07-28T03:41:47;99545.44;;;17.30;52.64
54900;BME280;40801;41.924;25.562;2023-07-28T03:44:13;99548.50;;;17.28;52.90
54900;BME280;40801;41.924;25.562;2023-07-28T03:46:38;99557.59;;;17.32;52.77
54900;BME280;40801;41.924;25.562;2023-07-28T03:49:03;99551.91;;;17.38;52.82
54900;BME280;40801;41.924;25.562;2023-07-28T03:51:29;99552.00;;;17.41;52.70
54900;BME280;40801;41.924;25.562;2023-07-28T03:53:54;99558.44;;;17.49;52.42
54900;BME280;40801;41.924;25.562;2023-07-28T03:56:19;99567.19;;;17.54;52.52
54900;BME280;40801;41.924;25.562;2023-07-28T03:58:45;99566.03;;;17.55;52.65
54900;BME280;40801;41.924;25.562;2023-07-28T04:01:10;99559.19;;;17.61;52.48
54900;BME280;40801;41.924;25.562;2023-07-28T04:03:36;99565.25;;;17.67;52.80
54900;BME280;40801;41.924;25.562;2023-07-28T04:06:09;99569.41;;;17.77;52.60
54900;BME280;40801;41.924;25.562;2023-07-28T04:08:35;99565.00;;;17.88;51.84
54900;BME280;40801;41.924;25.562;2023-07-28T04:11:00;99577.28;;;17.94;51.50
54900;BME280;40801;41.924;25.562;2023-07-28T04:13:25;99578.63;;;18.00;51.47
54900;BME280;40801;41.924;25.562;2023-07-28T04:15:51;99579.94;;;18.06;51.45
54900;BME280;40801;41.924;25.562;2023-07-28T04:18:16;99577.47;;;18.17;51.25
54900;BME280;40801;41.924;25.562;2023-07-28T04:20:43;99583.94;;;18.24;51.35
54900;BME280;40801;41.924;25.562;2023-07-28T04:23:08;99583.16;;;18.24;51.44
54900;BME280;40801;41.924;25.562;2023-07-28T04:25:33;99588.34;;;18.45;50.97
54900;BME280;40801;41.924;25.562;2023-07-28T04:27:59;99593.22;;;18.51;50.71
54900;BME280;40801;41.924;25.562;2023-07-28T04:30:24;99588.81;;;18.63;50.45
54900;BME280;40801;41.924;25.562;2023-07-28T04:32:50;99588.72;;;18.75;50.10
54900;BME280;40801;41.924;25.562;2023-07-28T04:35:15;99590.66;;;18.90;49.60
54900;BME280;40801;41.924;25.562;2023-07-28T04:37:41;99589.44;;;19.07;49.25
54900;BME280;40801;41.924;25.562;2023-07-28T04:40:07;99587.47;;;19.23;48.56
54900;BME280;40801;41.924;25.562;2023-07-28T04:42:33;99586.28;;;19.40;48.36
54900;BME280;40801;41.924;25.562;2023-07-28T04:44:59;99583.50;;;19.56;48.14
54900;BME280;40801;41.924;25.562;2023-07-28T04:47:24;99580.91;;;19.63;47.72
54900;BME280;40801;41.924;25.562;2023-07-28T04:49:50;99584.31;;;19.75;47.04
54900;BME280;40801;41.924;25.562;2023-07-28T04:52:15;99581.47;;;19.91;46.97
54900;BME280;40801;41.924;25.562;2023-07-28T04:54:40;99582.19;;;20.07;46.83
54900;BME280;40801;41.924;25.562;2023-07-28T04:57:06;99581.56;;;20.18;46.28
54900;BME280;40801;41.924;25.562;2023-07-28T04:59:31;99591.22;;;20.31;45.44
54900;BME280;40801;41.924;25.562;2023-07-28T05:01:57;99592.91;;;20.39;45.33
54900;BME280;40801;41.924;25.562;2023-07-28T05:04:22;99595.94;;;20.53;45.25
54900;BME280;40801;41.924;25.562;2023-07-28T05:06:47;99588.31;;;20.66;45.00
54900;BME280;40801;41.924;25.562;2023-07-28T05:09:13;99582.25;;;20.80;44.41
54900;BME280;40801;41.924;25.562;2023-07-28T05:11:38;99590.28;;;20.92;44.49
54900;BME280;40801;41.924;25.562;2023-07-28T05:14:03;99592.44;;;21.06;44.18
54900;BME280;40801;41.924;25.562;2023-07-28T05:16:31;99599.63;;;21.14;43.80
54900;BME280;40801;41.924;25.562;2023-07-28T05:18:57;99595.56;;;21.30;43.57
54900;BME280;40801;41.924;25.562;2023-07-28T05:21:22;99590.28;;;21.45;43.67
54900;BME280;40801;41.924;25.562;2023-07-28T05:23:48;99591.13;;;21.49;43.48
54900;BME280;40801;41.924;25.562;2023-07-28T05:26:13;99602.50;;;21.51;43.43
54900;BME280;40801;41.924;25.562;2023-07-28T05:28:38;99599.06;;;21.57;43.46
54900;BME280;40801;41.924;25.562;2023-07-28T05:31:07;99603.88;;;21.68;43.19
54900;BME280;40801;41.924;25.562;2023-07-28T05:33:33;99612.03;;;21.94;43.09
54900;BME280;40801;41.924;25.562;2023-07-28T05:36:04;99607.66;;;22.19;42.06
54900;BME280;40801;41.924;25.562;2023-07-28T05:38:30;99601.13;;;22.35;42.16
54900;BME280;40801;41.924;25.562;2023-07-28T05:40:57;99610.25;;;22.46;42.56
54900;BME280;40801;41.924;25.562;2023-07-28T05:43:22;99606.09;;;22.63;41.97
54900;BME280;40801;41.924;25.562;2023-07-28T05:45:48;99613.28;;;22.78;42.17
54900;BME280;40801;41.924;25.562;2023-07-28T05:48:13;99612.25;;;22.93;41.45
54900;BME280;40801;41.924;25.562;2023-07-28T05:50:38;99603.25;;;22.96;41.16
54900;BME280;40801;41.924;25.562;2023-07-28T05:53:04;99619.03;;;23.06;41.23
54900;BME280;40801;41.924;25.562;2023-07-28T05:55:29;99613.94;;;23.12;40.55
54900;BME280;40801;41.924;25.562;2023-07-28T05:57:55;99615.13;;;23.11;39.99
54900;BME280;40801;41.924;25.562;2023-07-28T06:00:20;99617.63;;;23.37;39.79
54900;BME280;40801;41.924;25.562;2023-07-28T06:02:47;99617.25;;;23.39;39.62
54900;BME280;40801;41.924;25.562;2023-07-28T06:05:12;99618.91;;;23.54;39.29
54900;BME280;40801;41.924;25.562;2023-07-28T06:07:38;99614.66;;;23.64;38.66
54900;BME280;40801;41.924;25.562;2023-07-28T06:10:04;99617.88;;;23.73;38.45
54900;BME280;40801;41.924;25.562;2023-07-28T06:12:29;99625.75;;;23.82;38.09
54900;BME280;40801;41.924;25.562;2023-07-28T06:14:54;99627.75;;;23.85;38.41
54900;BME280;40801;41.924;25.562;2023-07-28T06:17:20;99632.47;;;23.95;37.87
54900;BME280;40801;41.924;25.562;2023-07-28T06:19:45;99623.88;;;24.00;37.74
54900;BME280;40801;41.924;25.562;2023-07-28T06:22:11;99630.59;;;24.13;37.42
54900;BME280;40801;41.924;25.562;2023-07-28T06:24:36;99634.13;;;24.21;37.33
54900;BME280;40801;41.924;25.562;2023-07-28T06:27:01;99617.22;;;24.26;37.17
54900;BME280;40801;41.924;25.562;2023-07-28T06:29:32;99623.59;;;24.37;37.00
54900;BME280;40801;41.924;25.562;2023-07-28T06:31:57;99622.00;;;24.54;36.71
54900;BME280;40801;41.924;25.562;2023-07-28T06:34:23;99628.72;;;24.70;36.77
54900;BME280;40801;41.924;25.562;2023-07-28T06:36:48;99627.16;;;24.94;36.74
54900;BME280;40801;41.924;25.562;2023-07-28T06:39:14;99620.84;;;25.22;35.86
54900;BME280;40801;41.924;25.562;2023-07-28T06:41:40;99616.88;;;25.30;35.14
54900;BME280;40801;41.924;25.562;2023-07-28T06:44:05;99615.63;;;25.53;35.21
54900;BME280;40801;41.924;25.562;2023-07-28T06:46:31;99618.00;;;25.54;34.94
54900;BME280;40801;41.924;25.562;2023-07-28T06:48:56;99604.91;;;25.80;34.38
54900;BME280;40801;41.924;25.562;2023-07-28T06:51:21;99598.88;;;25.99;33.86
54900;BME280;40801;41.924;25.562;2023-07-28T06:53:47;99601.56;;;26.13;32.78
54900;BME280;40801;41.924;25.562;2023-07-28T06:56:12;99602.38;;;26.10;32.44
54900;BME280;40801;41.924;25.562;2023-07-28T06:58:38;99592.53;;;26.06;32.47
54900;BME280;40801;41.924;25.562;2023-07-28T07:01:03;99587.41;;;26.04;31.96
54900;BME280;40801;41.924;25.562;2023-07-28T07:03:28;99591.22;;;26.24;32.25
54900;BME280;40801;41.924;25.562;2023-07-28T07:05:54;99590.72;;;26.44;32.19
54900;BME280;40801;41.924;25.562;2023-07-28T07:08:19;99586.66;;;26.55;31.92
54900;BME280;40801;41.924;25.562;2023-07-28T07:10:52;99583.31;;;26.78;31.15
54900;BME280;40801;41.924;25.562;2023-07-28T07:13:17;99583.63;;;26.88;31.94
54900;BME280;40801;41.924;25.562;2023-07-28T07:15:43;99574.34;;;27.08;31.27
54900;BME280;40801;41.924;25.562;2023-07-28T07:18:09;99578.28;;;27.11;31.58
54900;BME280;40801;41.924;25.562;2023-07-28T07:20:35;99578.97;;;27.22;31.34
54900;BME280;40801;41.924;25.562;2023-07-28T07:23:01;99580.41;;;27.34;31.01
54900;BME280;40801;41.924;25.562;2023-07-28T07:25:26;99587.31;;;27.19;30.43
54900;BME280;40801;41.924;25.562;2023-07-28T07:27:52;99585.81;;;27.10;30.62
54900;BME280;40801;41.924;25.562;2023-07-28T07:30:17;99585.88;;;27.03;30.26
54900;BME280;40801;41.924;25.562;2023-07-28T07:32:43;99597.38;;;27.02;30.09
54900;BME280;40801;41.924;25.562;2023-07-28T07:35:09;99585.88;;;27.03;30.15
54900;BME280;40801;41.924;25.562;2023-07-28T07:37:34;99584.28;;;27.06;30.28
54900;BME280;40801;41.924;25.562;2023-07-28T07:40:00;99576.75;;;27.06;30.45
54900;BME280;40801;41.924;25.562;2023-07-28T07:42:27;99574.25;;;27.19;30.15
54900;BME280;40801;41.924;25.562;2023-07-28T07:44:52;99574.41;;;27.39;30.58
54900;BME280;40801;41.924;25.562;2023-07-28T07:47:18;99575.09;;;27.46;29.77
54900;BME280;40801;41.924;25.562;2023-07-28T07:49:43;99577.66;;;27.68;29.41
54900;BME280;40801;41.924;25.562;2023-07-28T07:52:08;99577.19;;;27.73;29.35
54900;BME280;40801;41.924;25.562;2023-07-28T07:54:34;99571.69;;;27.69;28.71
54900;BME280;40801;41.924;25.562;2023-07-28T07:57:00;99567.72;;;27.70;28.75
54900;BME280;40801;41.924;25.562;2023-07-28T07:59:25;99568.28;;;27.89;27.78
54900;BME280;40801;41.924;25.562;2023-07-28T08:01:53;99570.22;;;28.19;26.61
54900;BME280;40801;41.924;25.562;2023-07-28T08:04:19;99564.84;;;28.58;26.46
54900;BME280;40801;41.924;25.562;2023-07-28T08:06:44;99570.25;;;28.92;26.92
54900;BME280;40801;41.924;25.562;2023-07-28T08:09:09;99565.50;;;29.13;26.70
54900;BME280;40801;41.924;25.562;2023-07-28T08:11:35;99561.31;;;29.44;26.33
54900;BME280;40801;41.924;25.562;2023-07-28T08:14:00;99557.84;;;29.60;26.73
54900;BME280;40801;41.924;25.562;2023-07-28T08:16:26;99561.03;;;30.14;26.48
54900;BME280;40801;41.924;25.562;2023-07-28T08:18:51;99556.69;;;30.46;25.18
54900;BME280;40801;41.924;25.562;2023-07-28T08:21:17;99548.03;;;30.89;24.25
54900;BME280;40801;41.924;25.562;2023-07-28T08:23:42;99544.50;;;31.18;22.81
54900;BME280;40801;41.924;25.562;2023-07-28T08:26:07;99546.75;;;31.52;23.38
54900;BME280;40801;41.924;25.562;2023-07-28T08:28:33;99547.88;;;31.67;23.46
54900;BME280;40801;41.924;25.562;2023-07-28T08:30:58;99540.50;;;31.60;24.21
54900;BME280;40801;41.924;25.562;2023-07-28T08:33:24;99532.84;;;31.77;24.24
54900;BME280;40801;41.924;25.562;2023-07-28T08:35:50;99531.50;;;32.32;23.44
54900;BME280;40801;41.924;25.562;2023-07-28T08:38:15;99527.97;;;32.66;22.26
54900;BME280;40801;41.924;25.562;2023-07-28T08:40:43;99521.84;;;32.59;21.76
54900;BME280;40801;41.924;25.562;2023-07-28T08:43:09;99525.84;;;32.71;22.18
54900;BME280;40801;41.924;25.562;2023-07-28T08:45:34;99525.69;;;32.87;22.01
54900;BME280;40801;41.924;25.562;2023-07-28T08:48:00;99517.88;;;32.47;22.55
54900;BME280;40801;41.924;25.562;2023-07-28T08:50:25;99513.03;;;32.95;22.49
54900;BME280;40801;41.924;25.562;2023-07-28T08:52:51;99520.97;;;33.18;21.32
54900;BME280;40801;41.924;25.562;2023-07-28T08:55:17;99519.66;;;33.54;21.21
54900;BME280;40801;41.924;25.562;2023-07-28T08:57:42;99523.16;;;33.89;21.63
54900;BME280;40801;41.924;25.562;2023-07-28T09:00:11;99520.78;;;34.28;20.38
54900;BME280;40801;41.924;25.562;2023-07-28T09:02:40;99516.03;;;34.46;19.53
54900;BME280;40801;41.924;25.562;2023-07-28T09:05:06;99506.69;;;34.50;20.09
54900;BME280;40801;41.924;25.562;2023-07-28T09:07:35;99506.22;;;34.51;19.49
54900;BME280;40801;41.924;25.562;2023-07-28T09:10:02;99511.75;;;34.33;20.34
54900;BME280;40801;41.924;25.562;2023-07-28T09:12:31;99506.34;;;34.38;19.41
54900;BME280;40801;41.924;25.562;2023-07-28T09:14:57;99500.16;;;34.80;19.67
54900;BME280;40801;41.924;25.562;2023-07-28T09:17:22;99500.00;;;34.56;19.59
54900;BME280;40801;41.924;25.562;2023-07-28T09:19:52;99504.38;;;35.12;18.63
54900;BME280;40801;41.924;25.562;2023-07-28T09:22:18;99504.50;;;35.27;18.29
54900;BME280;40801;41.924;25.562;2023-07-28T09:24:44;99501.75;;;34.99;18.84
54900;BME280;40801;41.924;25.562;2023-07-28T09:27:19;99495.66;;;34.92;18.86
54900;BME280;40801;41.924;25.562;2023-07-28T09:29:52;99496.97;;;35.51;18.16
54900;BME280;40801;41.924;25.562;2023-07-28T09:32:29;99483.63;;;35.28;18.28
54900;BME280;40801;41.924;25.562;2023-07-28T09:37:33;99473.09;;;34.86;18.20
54900;BME280;40801;41.924;25.562;2023-07-28T09:40:00;99477.84;;;35.41;18.18
54900;BME280;40801;41.924;25.562;2023-07-28T09:42:26;99471.16;;;35.38;18.42
54900;BME280;40801;41.924;25.562;2023-07-28T09:44:52;99462.34;;;35.63;18.45
54900;BME280;40801;41.924;25.562;2023-07-28T09:47:17;99462.25;;;35.82;17.96
54900;BME280;40801;41.924;25.562;2023-07-28T09:49:46;99460.16;;;36.24;17.28
54900;BME280;40801;41.924;25.562;2023-07-28T09:52:16;99457.88;;;35.90;17.46
54900;BME280;40801;41.924;25.562;2023-07-28T09:54:45;99450.78;;;36.04;17.34
54900;BME280;40801;41.924;25.562;2023-07-28T09:57:14;99440.75;;;36.36;17.14
54900;BME280;40801;41.924;25.562;2023-07-28T09:59:45;99437.69;;;36.87;17.29
54900;BME280;40801;41.924;25.562;2023-07-28T10:02:12;99430.91;;;37.08;16.93
54900;BME280;40801;41.924;25.562;2023-07-28T10:04:38;99443.91;;;37.20;16.66
54900;BME280;40801;41.924;25.562;2023-07-28T10:07:07;99439.47;;;37.29;15.67
54900;BME280;40801;41.924;25.562;2023-07-28T10:09:33;99440.59;;;37.51;16.20
54900;BME280;40801;41.924;25.562;2023-07-28T10:12:00;99438.16;;;37.59;16.25
54900;BME280;40801;41.924;25.562;2023-07-28T10:14:27;99435.16;;;37.63;16.11
54900;BME280;40801;41.924;25.562;2023-07-28T10:16:53;99432.63;;;37.65;16.34
54900;BME280;40801;41.924;25.562;2023-07-28T10:19:20;99423.81;;;37.92;16.03
54900;BME280;40801;41.924;25.562;2023-07-28T10:21:45;99412.63;;;37.98;16.08
54900;BME280;40801;41.924;25.562;2023-07-28T10:24:11;99426.59;;;37.72;15.16
54900;BME280;40801;41.924;25.562;2023-07-28T10:29:12;99411.19;;;38.23;14.60
54900;BME280;40801;41.924;25.562;2023-07-28T10:31:49;99406.66;;;38.51;13.99
54900;BME280;40801;41.924;25.562;2023-07-28T10:34:18;99401.81;;;38.78;14.26
54900;BME280;40801;41.924;25.562;2023-07-28T10:36:44;99394.97;;;38.84;14.34
54900;BME280;40801;41.924;25.562;2023-07-28T10:39:17;99395.78;;;38.44;14.47
54900;BME280;40801;41.924;25.562;2023-07-28T10:44:28;99381.22;;;38.97;13.75
54900;BME280;40801;41.924;25.562;2023-07-28T10:46:54;99379.03;;;38.81;14.31
54900;BME280;40801;41.924;25.562;2023-07-28T10:49:20;99375.97;;;38.59;14.32
54900;BME280;40801;41.924;25.562;2023-07-28T10:51:45;99376.59;;;38.94;14.11
54900;BME280;40801;41.924;25.562;2023-07-28T10:54:11;99371.88;;;38.60;13.97
54900;BME280;40801;41.924;25.562;2023-07-28T10:56:41;99370.84;;;38.57;13.70
54900;BME280;40801;41.924;25.562;2023-07-28T10:59:06;99368.47;;;38.50;13.45
54900;BME280;40801;41.924;25.562;2023-07-28T11:01:38;99376.88;;;38.04;14.51
54900;BME280;40801;41.924;25.562;2023-07-28T11:04:11;99357.28;;;38.35;13.87
54900;BME280;40801;41.924;25.562;2023-07-28T11:06:41;99351.28;;;38.74;13.97
54900;BME280;40801;41.924;25.562;2023-07-28T11:09:11;99357.28;;;38.35;14.18
54900;BME280;40801;41.924;25.562;2023-07-28T11:11:40;99343.41;;;38.32;15.13
54900;BME280;40801;41.924;25.562;2023-07-28T11:14:07;99359.13;;;38.90;14.74
54900;BME280;40801;41.924;25.562;2023-07-28T11:16:35;99342.66;;;38.83;14.02
54900;BME280;40801;41.924;25.562;2023-07-28T11:19:02;99344.00;;;38.93;14.17
54900;BME280;40801;41.924;25.562;2023-07-28T11:21:28;99344.13;;;39.42;14.13
54900;BME280;40801;41.924;25.562;2023-07-28T11:23:53;99338.59;;;39.53;14.23
54900;BME280;40801;41.924;25.562;2023-07-28T11:26:22;99334.91;;;39.41;13.97
54900;BME280;40801;41.924;25.562;2023-07-28T11:28:48;99331.91;;;39.56;13.54
54900;BME280;40801;41.924;25.562;2023-07-28T11:31:14;99328.06;;;39.53;14.20
54900;BME280;40801;41.924;25.562;2023-07-28T11:33:39;99324.72;;;39.55;14.12
54900;BME280;40801;41.924;25.562;2023-07-28T11:36:05;99331.16;;;39.61;13.79
54900;BME280;40801;41.924;25.562;2023-07-28T11:38:31;99322.31;;;39.37;13.67
54900;BME280;40801;41.924;25.562;2023-07-28T11:40:58;99323.78;;;39.63;13.64
54900;BME280;40801;41.924;25.562;2023-07-28T11:43:24;99324.16;;;39.93;14.14
54900;BME280;40801;41.924;25.562;2023-07-28T11:45:50;99321.44;;;40.27;13.14
54900;BME280;40801;41.924;25.562;2023-07-28T11:48:15;99323.31;;;40.75;12.71
54900;BME280;40801;41.924;25.562;2023-07-28T11:50:41;99326.66;;;40.73;12.68
54900;BME280;40801;41.924;25.562;2023-07-28T11:53:08;99319.72;;;40.58;12.59
54900;BME280;40801;41.924;25.562;2023-07-28T11:55:35;99319.84;;;40.04;13.64
54900;BME280;40801;41.924;25.562;2023-07-28T11:58:02;99323.06;;;40.56;12.79
54900;BME280;40801;41.924;25.562;2023-07-28T12:00:39;99311.88;;;39.97;12.90
54900;BME280;40801;41.924;25.562;2023-07-28T12:03:05;99310.09;;;40.05;13.32
54900;BME280;40801;41.924;25.562;2023-07-28T12:05:31;99305.69;;;39.50;13.31
54900;BME280;40801;41.924;25.562;2023-07-28T12:07:58;99298.19;;;39.89;12.98
54900;BME280;40801;41.924;25.562;2023-07-28T12:10:24;99299.28;;;39.49;13.35
54900;BME280;40801;41.924;25.562;2023-07-28T12:12:50;99295.19;;;39.50;13.92
54900;BME280;40801;41.924;25.562;2023-07-28T12:15:25;99299.66;;;39.68;13.38
54900;BME280;40801;41.924;25.562;2023-07-28T12:18:14;99289.34;;;39.59;13.57
54900;BME280;40801;41.924;25.562;2023-07-28T12:20:51;99279.38;;;39.64;12.83
54900;BME280;40801;41.924;25.562;2023-07-28T12:23:20;99283.25;;;39.78;13.20
54900;BME280;40801;41.924;25.562;2023-07-28T12:25:47;99273.88;;;39.49;13.60
54900;BME280;40801;41.924;25.562;2023-07-28T12:28:13;99270.34;;;39.60;13.62
54900;BME280;40801;41.924;25.562;2023-07-28T12:30:38;99261.03;;;40.08;13.51
54900;BME280;40801;41.924;25.562;2023-07-28T12:33:05;99258.47;;;40.15;13.12
54900;BME280;40801;41.924;25.562;2023-07-28T12:35:32;99255.66;;;40.10;13.03
54900;BME280;40801;41.924;25.562;2023-07-28T12:38:00;99251.09;;;40.57;13.26
54900;BME280;40801;41.924;25.562;2023-07-28T12:40:27;99245.69;;;40.59;12.92
54900;BME280;40801;41.924;25.562;2023-07-28T12:42:56;99246.44;;;40.76;12.87
54900;BME280;40801;41.924;25.562;2023-07-28T12:45:22;99233.84;;;40.72;12.71
54900;BME280;40801;41.924;25.562;2023-07-28T12:47:50;99237.69;;;40.30;13.38
54900;BME280;40801;41.924;25.562;2023-07-28T12:50:16;99235.63;;;40.36;13.30
54900;BME280;40801;41.924;25.562;2023-07-28T12:52:42;99234.31;;;40.09;13.83
54900;BME280;40801;41.924;25.562;2023-07-28T12:55:07;99223.97;;;39.83;13.40
54900;BME280;40801;41.924;25.562;2023-07-28T12:57:33;99221.91;;;39.89;13.93